Time;durP1;ratioP1;P1;durP2;ratioP2;P2;SDS_P1;SDS_P2;PMS_P1;PMS_P2;Temp;Humidity;BMP_temperature;BMP_pressure;BME280_temperature;BME280_humidity;BME280_pressure;Samples;Min_cycle;Max_cycle;Signal;HPM_P1;HPM_P2
2020/12/26 00:01:44;;;;;;;26.90;18.73;;;;;;;3.27;79.54;94135.68;1779761;80;21068;-48
2020/12/26 00:04:14;;;;;;;28.52;19.05;;;;;;;3.32;79.21;94137.16;1779818;80;21064;-49
2020/12/26 00:06:43;;;;;;;31.40;19.82;;;;;;;3.34;79.07;94142.95;1779953;80;21591;-48
2020/12/26 00:09:12;;;;;;;26.27;18.80;;;;;;;3.31;78.91;94145.14;1779861;80;21166;-47
2020/12/26 00:11:41;;;;;;;27.58;18.67;;;;;;;3.28;79.17;94142.66;1779772;80;22304;-48
2020/12/26 00:14:10;;;;;;;36.60;26.97;;;;;;;3.37;79.15;94138.03;1779761;80;21088;-48
2020/12/26 00:16:39;;;;;;;38.85;25.65;;;;;;;3.37;78.74;94147.55;1779912;80;21085;-48
2020/12/26 00:19:14;;;;;;;32.90;22.67;;;;;;;3.31;78.73;94143.78;1778105;80;21500;-47
2020/12/26 00:21:39;;;;;;;33.78;22.60;;;;;;;3.28;78.69;94150.80;1779386;80;21155;-49
2020/12/26 00:24:08;;;;;;;39.53;24.10;;;;;;;3.24;78.76;94153.42;1753256;80;21283;-49
2020/12/26 00:26:37;;;;;;;54.48;31.05;;;;;;;3.21;78.79;94148.83;1785953;80;21143;-48
2020/12/26 00:29:05;;;;;;;51.37;30.05;;;;;;;3.14;78.98;94144.28;1779794;80;21144;-48
2020/12/26 00:31:34;;;;;;;51.00;32.42;;;;;;;3.10;79.13;94139.50;1779842;80;21551;-48
2020/12/26 00:34:03;;;;;;;54.67;32.85;;;;;;;3.04;79.22;94146.57;1779796;80;21146;-48
2020/12/26 00:36:31;;;;;;;51.63;29.90;;;;;;;2.99;79.55;94140.83;1779796;80;21380;-49
2020/12/26 00:39:00;;;;;;;41.75;25.52;;;;;;;2.95;79.61;94143.62;1779622;80;21150;-49
2020/12/26 00:41:28;;;;;;;38.35;25.77;;;;;;;2.96;79.74;94143.02;1779802;80;21159;-48
2020/12/26 00:43:57;;;;;;;37.25;24.92;;;;;;;2.96;79.64;94147.87;1779901;80;21052;-48
2020/12/26 00:46:25;;;;;;;40.98;25.30;;;;;;;2.96;79.75;94160.68;1779819;80;21068;-48
2020/12/26 00:48:54;;;;;;;35.20;22.62;;;;;;;2.95;79.89;94153.72;1779812;80;21382;-49
2020/12/26 00:51:22;;;;;;;27.40;19.45;;;;;;;2.97;79.96;94160.86;1779780;80;21130;-48
2020/12/26 00:53:50;;;;;;;31.97;21.73;;;;;;;2.97;79.79;94158.14;1779793;80;21507;-48
2020/12/26 00:56:19;;;;;;;31.23;21.50;;;;;;;2.91;79.83;94151.05;1779927;80;21475;-49
2020/12/26 00:58:47;;;;;;;31.45;20.30;;;;;;;2.87;80.05;94148.98;1779738;80;21093;-48
2020/12/26 01:01:16;;;;;;;27.90;19.67;;;;;;;2.92;80.43;94149.11;1779762;80;21478;-48
2020/12/26 01:03:52;;;;;;;25.90;18.37;;;;;;;2.96;80.23;94153.31;1778851;80;21139;-47
2020/12/26 01:06:20;;;;;;;28.85;18.48;;;;;;;2.97;80.15;94139.13;1779871;80;21544;-48
2020/12/26 01:08:49;;;;;;;33.58;20.55;;;;;;;2.97;80.02;94145.92;1779851;80;21059;-48
2020/12/26 01:11:17;;;;;;;34.75;21.23;;;;;;;2.96;80.23;94147.09;1779791;80;21084;-48
2020/12/26 01:13:46;;;;;;;47.73;28.60;;;;;;;3.03;80.09;94138.24;1779772;80;21359;-49
2020/12/26 01:16:15;;;;;;;43.42;26.30;;;;;;;3.07;79.74;94140.91;1779832;80;21088;-48
2020/12/26 01:18:43;;;;;;;23.05;16.12;;;;;;;3.10;79.64;94145.51;1779622;80;21100;-48
2020/12/26 01:21:15;;;;;;;47.88;30.23;;;;;;;3.07;79.42;94142.27;1749529;80;21095;-49
2020/12/26 01:23:43;;;;;;;49.98;31.25;;;;;;;3.04;79.44;94143.09;1779917;80;21559;-48
2020/12/26 01:26:14;;;;;;;52.45;32.35;;;;;;;2.99;79.32;94134.05;1779771;80;21216;-48
2020/12/26 01:28:42;;;;;;;44.63;27.58;;;;;;;2.86;79.44;94143.98;1745009;81;21571;-49
2020/12/26 01:31:12;;;;;;;44.65;29.00;;;;;;;2.76;79.88;94138.11;1749343;80;21219;-47
2020/12/26 01:33:41;;;;;;;40.92;26.55;;;;;;;2.75;80.20;94136.00;1779722;80;21211;-48
2020/12/26 01:36:13;;;;;;;46.35;28.25;;;;;;;2.75;80.32;94133.29;1779795;80;21163;-48
2020/12/26 01:38:41;;;;;;;52.98;29.87;;;;;;;2.75;80.60;94132.51;1779906;80;21277;-48
2020/12/26 01:41:10;;;;;;;41.20;27.37;;;;;;;2.78;80.85;94135.75;1779707;80;21203;-49
2020/12/26 01:43:39;;;;;;;38.58;26.50;;;;;;;2.84;80.72;94139.55;1779760;80;21126;-48
2020/12/26 01:46:07;;;;;;;34.03;21.45;;;;;;;2.88;80.79;94138.30;1779711;80;21063;-49
2020/12/26 01:48:35;;;;;;;32.48;23.87;;;;;;;2.95;80.68;94134.70;1779806;80;21984;-48
2020/12/26 01:51:04;;;;;;;37.95;25.02;;;;;;;3.00;80.55;94132.86;1779791;80;21381;-48
2020/12/26 01:53:33;;;;;;;32.60;22.52;;;;;;;2.97;80.59;94129.62;1779794;80;21132;-48
2020/12/26 01:56:01;;;;;;;26.73;20.20;;;;;;;2.93;80.50;94128.91;1779701;80;21120;-47
2020/12/26 01:58:30;;;;;;;51.08;30.37;;;;;;;2.90;80.58;94131.11;1779699;80;21060;-48
2020/12/26 02:00:58;;;;;;;51.05;30.25;;;;;;;2.83;80.65;94138.02;1779707;80;21218;-48
2020/12/26 02:03:26;;;;;;;62.65;35.88;;;;;;;2.82;80.81;94131.02;1779638;80;21390;-48
2020/12/26 02:05:55;;;;;;;76.82;43.42;;;;;;;2.82;80.88;94132.38;1779692;80;21528;-48
2020/12/26 02:08:24;;;;;;;73.28;42.13;;;;;;;2.84;81.07;94128.69;1779672;80;21076;-49
2020/12/26 02:10:54;;;;;;;66.20;35.58;;;;;;;2.86;80.91;94131.76;1779719;80;21072;-48
2020/12/26 02:13:22;;;;;;;58.38;33.65;;;;;;;2.87;81.03;94143.55;1779829;80;21063;-48
2020/12/26 02:16:07;;;;;;;53.58;31.37;;;;;;;2.85;80.98;94151.34;1779796;80;21212;-48
2020/12/26 02:18:35;;;;;;;53.17;29.12;;;;;;;2.82;80.85;94152.17;1779731;80;21547;-48
2020/12/26 02:21:03;;;;;;;45.12;28.95;;;;;;;2.81;80.91;94155.29;1779623;80;21167;-48
2020/12/26 02:23:35;;;;;;;46.80;28.62;;;;;;;2.87;81.22;94163.17;1779702;80;21151;-49
2020/12/26 02:26:03;;;;;;;44.98;25.17;;;;;;;2.91;80.96;94163.88;1779867;80;21531;-48
2020/12/26 02:28:32;;;;;;;33.45;24.15;;;;;;;2.92;80.83;94167.55;1779736;80;22153;-48
2020/12/26 02:31:01;;;;;;;47.75;28.10;;;;;;;2.87;80.79;94159.09;1779622;80;21144;-48
2020/12/26 02:33:31;;;;;;;41.45;24.10;;;;;;;2.82;80.89;94163.04;1779670;80;21159;-47
2020/12/26 02:35:59;;;;;;;41.95;24.80;;;;;;;2.84;80.94;94165.35;1779691;80;21519;-48
2020/12/26 02:38:28;;;;;;;42.67;25.37;;;;;;;2.81;80.79;94162.08;1779597;80;21160;-48
2020/12/26 02:40:57;;;;;;;36.25;22.60;;;;;;;2.78;80.92;94161.55;1779718;80;21919;-48
2020/12/26 02:43:26;;;;;;;35.85;22.82;;;;;;;2.80;80.94;94165.97;1779671;80;21076;-48
2020/12/26 02:45:55;;;;;;;40.45;22.73;;;;;;;2.76;80.78;94175.55;1779771;80;21111;-49
2020/12/26 02:48:23;;;;;;;17.10;12.13;;;;;;;2.68;80.92;94172.75;1779684;80;21152;-49
2020/12/26 02:50:55;;;;;;;22.90;15.95;;;;;;;2.67;80.34;94175.89;1779626;80;21135;-48
2020/12/26 02:53:26;;;;;;;27.37;18.00;;;;;;;2.65;80.09;94172.22;1779698;80;21381;-48
2020/12/26 02:55:55;;;;;;;30.60;18.53;;;;;;;2.67;80.34;94170.47;1779862;80;21079;-48
2020/12/26 02:58:24;;;;;;;15.70;12.23;;;;;;;2.63;80.41;94173.22;1779636;80;21136;-48
2020/12/26 03:00:52;;;;;;;9.83;8.70;;;;;;;2.56;80.61;94167.12;1779659;80;21495;-50
2020/12/26 03:03:21;;;;;;;10.10;8.80;;;;;;;2.52;79.24;94181.34;1779721;80;21139;-48
2020/12/26 03:05:51;;;;;;;16.25;11.93;;;;;;;2.49;78.73;94187.59;1779668;80;21212;-48
2020/12/26 03:08:19;;;;;;;10.48;8.45;;;;;;;2.47;78.19;94176.38;1779595;80;21135;-48
2020/12/26 03:10:47;;;;;;;8.05;7.35;;;;;;;2.50;76.99;94195.92;1779727;80;21070;-49
2020/12/26 03:13:16;;;;;;;6.83;6.22;;;;;;;2.49;76.00;94188.95;1779793;80;21590;-48
2020/12/26 03:15:44;;;;;;;6.62;6.05;;;;;;;2.49;75.51;94190.31;1779707;80;21127;-48
2020/12/26 03:18:12;;;;;;;7.20;6.60;;;;;;;2.52;74.66;94198.38;1779694;80;21536;-49
2020/12/26 03:20:41;;;;;;;6.80;6.20;;;;;;;2.45;74.43;94199.06;1779678;80;21151;-48
2020/12/26 03:23:10;;;;;;;8.30;7.50;;;;;;;2.40;74.04;94200.89;1779736;80;21155;-49
2020/12/26 03:25:39;;;;;;;7.05;6.45;;;;;;;2.32;73.84;94202.92;1779727;80;21567;-48
2020/12/26 03:28:07;;;;;;;7.70;7.00;;;;;;;2.26;73.25;94206.49;1779814;80;21076;-48
2020/12/26 03:30:36;;;;;;;8.20;7.40;;;;;;;2.19;73.52;94202.52;1779795;80;21347;-48
2020/12/26 03:33:04;;;;;;;10.00;7.58;;;;;;;2.18;73.03;94192.25;1779781;80;21103;-48
2020/12/26 03:35:32;;;;;;;13.95;10.68;;;;;;;2.19;72.92;94201.17;1779754;80;21571;-49
2020/12/26 03:38:01;;;;;;;10.40;9.40;;;;;;;2.17;72.87;94202.92;1779756;80;21154;-49
2020/12/26 03:40:29;;;;;;;8.13;7.33;;;;;;;2.15;72.30;94198.49;1779791;80;21059;-48
2020/12/26 03:42:57;;;;;;;6.95;6.35;;;;;;;2.06;72.46;94200.16;1779926;80;22475;-48
2020/12/26 03:45:26;;;;;;;8.10;7.30;;;;;;;2.00;72.48;94205.26;1779761;80;21147;-48
2020/12/26 03:47:54;;;;;;;8.50;7.60;;;;;;;1.96;72.60;94192.94;1779829;80;21131;-48
2020/12/26 03:50:22;;;;;;;9.18;8.25;;;;;;;1.92;72.62;94189.50;1779804;80;21139;-48
2020/12/26 03:52:51;;;;;;;241.10;134.63;;;;;;;1.88;72.62;94192.82;1779791;80;21167;-50
2020/12/26 03:55:20;;;;;;;25.88;18.50;;;;;;;1.86;72.65;94210.09;1779724;80;21371;-49
2020/12/26 03:57:49;;;;;;;14.50;10.43;;;;;;;1.85;72.81;94218.83;1779714;80;21083;-47
2020/12/26 04:00:18;;;;;;;11.68;9.70;;;;;;;1.87;73.15;94219.76;1779786;80;21048;-48
2020/12/26 04:02:46;;;;;;;10.18;8.83;;;;;;;1.88;72.89;94222.66;1779817;80;21072;-49
2020/12/26 04:05:15;;;;;;;11.33;8.90;;;;;;;1.88;73.02;94230.78;1779750;80;21060;-48
2020/12/26 04:07:43;;;;;;;8.70;7.85;;;;;;;1.91;72.79;94232.69;1779848;80;22075;-48
2020/12/26 04:10:12;;;;;;;10.60;8.78;;;;;;;1.94;71.87;94235.97;1779769;80;21144;-48
2020/12/26 04:12:41;;;;;;;14.63;11.50;;;;;;;1.93;71.85;94241.22;1779751;80;21172;-48
2020/12/26 04:15:10;;;;;;;12.28;9.63;;;;;;;1.91;72.03;94238.89;1779858;80;21189;-48
2020/12/26 04:17:38;;;;;;;13.40;11.43;;;;;;;1.95;72.21;94236.91;1779773;80;21162;-48
2020/12/26 04:20:07;;;;;;;10.72;9.68;;;;;;;1.99;72.04;94231.45;1779857;80;22147;-48
2020/12/26 04:22:36;;;;;;;11.48;9.05;;;;;;;1.98;71.95;94231.27;1779719;80;21079;-48
2020/12/26 04:25:04;;;;;;;8.10;7.30;;;;;;;1.96;71.76;94234.97;1779745;80;21132;-48
2020/12/26 04:27:33;;;;;;;8.90;8.03;;;;;;;1.98;70.99;94229.91;1779785;80;21136;-48
2020/12/26 04:30:02;;;;;;;9.18;7.78;;;;;;;1.97;70.99;94232.45;1779811;80;21119;-49
2020/12/26 04:32:31;;;;;;;8.40;7.60;;;;;;;1.99;71.13;94228.73;1779812;80;21367;-49
2020/12/26 04:35:00;;;;;;;9.18;8.30;;;;;;;1.96;70.58;94229.55;1779770;80;21170;-50
2020/12/26 04:37:28;;;;;;;10.68;8.48;;;;;;;1.98;70.99;94232.63;1779680;80;21177;-48
2020/12/26 04:39:56;;;;;;;15.68;10.05;;;;;;;1.99;70.98;94234.16;1779721;80;21063;-48
2020/12/26 04:42:27;;;;;;;9.68;7.65;;;;;;;2.01;71.15;94238.59;1779763;80;21064;-49
2020/12/26 04:44:57;;;;;;;8.33;6.90;;;;;;;2.06;70.95;94234.06;1779665;80;21151;-49
2020/12/26 04:47:31;;;;;;;8.93;7.72;;;;;;;2.11;69.94;94233.64;1779690;80;21107;-48
2020/12/26 04:50:00;;;;;;;7.42;6.72;;;;;;;2.09;69.92;94235.97;1779766;80;21084;-49
2020/12/26 04:52:30;;;;;;;10.78;9.43;;;;;;;2.06;69.43;94242.20;1779753;80;21556;-49
2020/12/26 04:54:59;;;;;;;12.37;9.13;;;;;;;2.05;69.17;94240.67;1779795;80;21061;-48
2020/12/26 04:57:27;;;;;;;16.95;11.30;;;;;;;2.08;69.34;94237.14;1779830;80;21368;-49
2020/12/26 04:59:56;;;;;;;8.73;7.67;;;;;;;2.15;69.70;94241.14;1749048;80;21144;-49
2020/12/26 05:02:25;;;;;;;7.60;6.80;;;;;;;2.20;69.50;94242.05;1779761;80;21067;-48
2020/12/26 05:04:55;;;;;;;7.33;6.62;;;;;;;2.19;68.96;94243.22;1779755;80;21087;-48
2020/12/26 05:07:23;;;;;;;7.80;7.00;;;;;;;2.15;69.02;94241.90;1779757;80;21175;-49
2020/12/26 05:09:51;;;;;;;9.63;8.63;;;;;;;2.09;69.03;94234.03;1779661;80;21252;-47
2020/12/26 05:12:19;;;;;;;9.05;7.75;;;;;;;2.02;69.10;94230.63;1779701;80;21080;-47
2020/12/26 05:14:50;;;;;;;9.23;8.18;;;;;;;1.98;69.47;94227.20;1779659;80;21096;-48
2020/12/26 05:17:20;;;;;;;10.48;7.33;;;;;;;1.90;69.34;94228.44;1741152;80;21065;-48
2020/12/26 05:19:48;;;;;;;7.35;6.65;;;;;;;1.92;69.48;94239.67;1778538;80;21068;-49
2020/12/26 05:22:18;;;;;;;11.97;9.10;;;;;;;1.90;69.26;94239.28;1777474;80;22425;-48
2020/12/26 05:24:53;;;;;;;16.40;12.13;;;;;;;1.90;69.67;94238.71;1779727;80;21100;-48
2020/12/26 05:27:27;;;;;;;29.20;18.80;;;;;;;1.95;70.17;94249.70;1779737;80;21591;-48
2020/12/26 05:29:55;;;;;;;19.50;15.15;;;;;;;1.99;70.84;94249.83;1779841;80;21090;-49
2020/12/26 05:32:24;;;;;;;16.40;11.78;;;;;;;2.01;71.39;94258.36;1779843;80;21579;-48
2020/12/26 05:34:52;;;;;;;15.95;12.85;;;;;;;2.02;71.37;94255.05;1779643;80;21376;-47
2020/12/26 05:37:21;;;;;;;29.10;21.05;;;;;;;2.02;71.69;94261.25;1779635;80;21214;-48
2020/12/26 05:39:49;;;;;;;27.17;20.68;;;;;;;2.04;71.99;94266.25;1779617;80;21076;-48
2020/12/26 05:42:19;;;;;;;28.95;21.52;;;;;;;2.08;72.35;94281.33;1779688;80;21104;-48
2020/12/26 05:44:49;;;;;;;43.40;28.20;;;;;;;2.08;72.38;94277.83;1779692;80;21087;-49
2020/12/26 05:47:18;;;;;;;10.72;9.50;;;;;;;2.10;72.61;94278.22;1779690;80;21140;-48
2020/12/26 05:49:47;;;;;;;17.07;13.25;;;;;;;2.11;70.52;94281.11;1779482;80;21107;-48
2020/12/26 05:52:15;;;;;;;15.40;12.18;;;;;;;2.03;70.07;94279.64;1779680;80;21080;-48
2020/12/26 05:54:51;;;;;;;8.73;7.55;;;;;;;1.92;70.14;94274.33;1779718;80;21167;-47
2020/12/26 05:57:19;;;;;;;9.28;8.08;;;;;;;1.82;68.66;94277.94;1779837;80;21500;-48
2020/12/26 05:59:50;;;;;;;8.38;7.58;;;;;;;1.70;68.50;94283.06;1779584;80;21199;-48
2020/12/26 06:02:29;;;;;;;7.55;6.80;;;;;;;1.68;68.56;94291.44;1779737;80;21096;-48
2020/12/26 06:05:01;;;;;;;7.08;6.45;;;;;;;1.71;67.88;94289.27;1779702;80;21080;-48
2020/12/26 06:07:36;;;;;;;7.40;6.72;;;;;;;1.67;66.65;94298.78;1779684;80;21084;-47
2020/12/26 06:10:07;;;;;;;7.10;6.50;;;;;;;1.61;67.07;94296.91;1779753;80;21119;-49
2020/12/26 06:12:36;;;;;;;6.65;6.15;;;;;;;1.54;67.09;94289.60;1779541;80;21412;-48
2020/12/26 06:15:05;;;;;;;7.87;7.20;;;;;;;1.54;66.46;94286.14;1779583;80;21103;-48
2020/12/26 06:17:34;;;;;;;7.28;6.58;;;;;;;1.51;66.72;94270.08;1779661;80;21115;-48
2020/12/26 06:20:08;;;;;;;8.05;7.22;;;;;;;1.53;66.67;94283.24;1779665;80;21170;-48
2020/12/26 06:22:49;;;;;;;8.58;7.65;;;;;;;1.52;66.77;94279.75;1779878;80;21064;-50
2020/12/26 06:25:22;;;;;;;8.90;8.03;;;;;;;1.50;66.67;94294.89;1779826;80;22338;-49
2020/12/26 06:27:59;;;;;;;7.35;6.75;;;;;;;1.49;66.79;94312.33;1779786;80;21622;-49
2020/12/26 06:30:31;;;;;;;6.90;6.30;;;;;;;1.51;66.37;94319.47;1779723;80;21080;-48
2020/12/26 06:32:59;;;;;;;9.93;6.50;;;;;;;1.48;66.04;94339.99;1779712;80;21067;-49
2020/12/26 06:35:28;;;;;;;6.75;6.25;;;;;;;1.40;66.28;94349.36;1779783;80;21170;-48
2020/12/26 06:38:18;;;;;;;7.58;6.87;;;;;;;1.39;65.96;94343.75;1779632;80;21207;-49
2020/12/26 06:40:54;;;;;;;11.00;9.73;;;;;;;1.43;66.13;94347.77;1779614;80;21544;-48
2020/12/26 06:43:52;;;;;;;10.65;9.40;;;;;;;1.52;66.68;94344.80;1779656;80;21155;-49
2020/12/26 06:46:34;;;;;;;7.08;6.45;;;;;;;1.61;66.19;94341.62;1740544;80;21563;-47
2020/12/26 06:49:03;;;;;;;10.13;7.83;;;;;;;1.64;66.11;94345.67;1779807;80;21143;-49
2020/12/26 06:51:38;;;;;;;8.15;7.08;;;;;;;1.68;65.81;94355.90;1779651;80;21273;-48
2020/12/26 06:54:12;;;;;;;6.70;6.20;;;;;;;1.70;65.81;94363.64;1749753;80;21140;-48
2020/12/26 06:56:45;;;;;;;6.45;5.95;;;;;;;1.64;65.70;94380.91;1779619;80;21175;-49
2020/12/26 06:59:15;;;;;;;10.95;7.97;;;;;;;1.56;65.81;94382.16;1779680;80;21665;-49
2020/12/26 07:01:45;;;;;;;8.15;6.65;;;;;;;1.51;66.23;94377.13;1779936;80;21602;-49
2020/12/26 07:04:17;;;;;;;8.18;7.12;;;;;;;1.55;66.40;94387.39;1779744;80;22236;-48
2020/12/26 07:06:49;;;;;;;10.05;8.00;;;;;;;1.53;65.85;94382.92;1779715;80;21071;-50
2020/12/26 07:09:19;;;;;;;10.43;7.70;;;;;;;1.46;65.84;94380.84;1779929;80;21476;-48
2020/12/26 07:11:52;;;;;;;7.65;6.85;;;;;;;1.46;66.21;94379.48;1779924;80;21489;-49
2020/12/26 07:14:38;;;;;;;8.40;7.70;;;;;;;1.49;65.99;94375.41;1779845;80;21202;-49
2020/12/26 07:17:24;;;;;;;12.28;8.53;;;;;;;1.54;65.96;94377.69;1779906;80;21372;-55
2020/12/26 07:19:54;;;;;;;10.63;8.48;;;;;;;1.58;66.11;94381.73;1779680;80;21111;-50
2020/12/26 07:22:29;;;;;;;15.72;10.23;;;;;;;1.59;66.11;94385.41;1779910;80;21132;-49
2020/12/26 07:25:08;;;;;;;11.78;8.80;;;;;;;1.60;66.26;94390.23;1779778;80;21081;-49
2020/12/26 07:27:40;;;;;;;14.80;11.18;;;;;;;1.64;66.22;94397.18;1779828;80;21083;-48
2020/12/26 07:30:19;;;;;;;21.30;17.90;;;;;;;1.72;66.60;94397.30;1779849;80;21207;-48
2020/12/26 07:32:55;;;;;;;81.40;44.73;;;;;;;1.81;67.16;94402.45;1779719;80;21084;-52
2020/12/26 07:35:30;;;;;;;28.52;18.73;;;;;;;1.89;68.12;94407.23;1779753;80;21084;-49
2020/12/26 07:38:12;;;;;;;;;;;;;;;1.90;68.50;94408.77;1782372;80;21162;-49
2020/12/26 07:40:45;;;;;;;42.98;26.05;;;;;;;1.93;68.90;94413.42;1779758;80;20218;-49
2020/12/26 07:43:17;;;;;;;36.93;23.98;;;;;;;1.91;69.18;94422.52;1779961;80;22127;-49
2020/12/26 07:45:46;;;;;;;40.85;27.45;;;;;;;1.91;69.62;94420.59;1779836;80;21504;-49
2020/12/26 07:48:14;;;;;;;32.78;22.50;;;;;;;1.90;69.51;94429.11;1779744;80;21581;-49
2020/12/26 07:50:44;;;;;;;30.27;21.00;;;;;;;1.89;69.57;94433.00;1779764;80;21116;-48
2020/12/26 07:53:14;;;;;;;35.83;23.42;;;;;;;1.84;69.53;94433.43;1779792;80;21159;-50
2020/12/26 07:55:42;;;;;;;33.23;22.22;;;;;;;1.82;69.98;94439.84;1779730;80;22164;-48
2020/12/26 07:58:16;;;;;;;40.55;25.35;;;;;;;1.85;70.15;94431.69;1779715;80;21163;-48
2020/12/26 08:00:44;;;;;;;22.15;15.43;;;;;;;1.97;70.27;94439.92;1746866;80;21572;-50
2020/12/26 08:03:13;;;;;;;24.10;17.40;;;;;;;2.05;69.98;94442.75;1779738;80;21170;-48
2020/12/26 08:05:48;;;;;;;26.73;19.87;;;;;;;2.04;70.02;94454.77;1779756;80;21051;-48
2020/12/26 08:08:24;;;;;;;;;;;;;;;2.07;70.15;94459.39;1782408;80;22280;-48
2020/12/26 08:10:58;;;;;;;42.05;25.12;;;;;;;2.07;70.23;94466.96;1779610;80;20227;-48
2020/12/26 08:13:30;;;;;;;29.52;20.17;;;;;;;2.07;70.33;94466.96;1779750;80;21071;-50
2020/12/26 08:16:04;;;;;;;34.33;22.87;;;;;;;2.03;70.37;94468.16;1779687;80;21071;-49
2020/12/26 08:18:35;;;;;;;43.68;25.92;;;;;;;1.95;70.69;94460.66;1779819;80;21135;-50
2020/12/26 08:21:06;;;;;;;38.55;23.67;;;;;;;1.90;71.20;94467.86;1779710;80;21363;-49
2020/12/26 08:23:34;;;;;;;32.55;22.40;;;;;;;1.87;71.44;94467.88;1779645;80;21159;-50
2020/12/26 08:26:03;;;;;;;29.95;21.10;;;;;;;1.92;71.95;94467.48;1779741;80;21511;-49
2020/12/26 08:28:35;;;;;;;37.35;23.42;;;;;;;2.04;71.97;94475.12;1779720;80;21151;-49
2020/12/26 08:31:03;;;;;;;36.45;22.02;;;;;;;2.13;71.94;94476.81;1721866;80;21123;-49
2020/12/26 08:33:38;;;;;;;25.30;18.75;;;;;;;2.13;71.85;94483.59;1770787;80;21313;-49
2020/12/26 08:36:38;;;;;;;37.90;27.35;;;;;;;2.11;72.07;94478.55;1768520;80;21187;-48
2020/12/26 08:39:08;;;;;;;39.45;27.67;;;;;;;2.18;72.19;94470.95;1759326;80;21064;-50
2020/12/26 08:41:41;;;;;;;34.60;23.32;;;;;;;2.30;72.55;94478.61;1773256;80;21089;-50
2020/12/26 08:44:10;;;;;;;21.40;15.87;;;;;;;2.36;72.55;94479.70;1762404;80;21479;-49
2020/12/26 08:46:47;;;;;;;18.37;14.38;;;;;;;2.35;72.35;94484.35;1766638;80;22073;-49
2020/12/26 08:49:15;;;;;;;17.62;14.95;;;;;;;2.31;72.15;94488.29;1766839;80;21503;-49
2020/12/26 08:51:45;;;;;;;24.47;18.32;;;;;;;2.22;72.37;94493.39;1759933;80;21158;-49
2020/12/26 08:54:20;;;;;;;19.07;15.18;;;;;;;2.15;72.71;94496.17;1757633;80;21136;-49
2020/12/26 08:56:49;;;;;;;21.17;14.90;;;;;;;2.11;72.94;94501.61;1745812;81;21076;-50
2020/12/26 08:59:28;;;;;;;15.53;12.80;;;;;;;2.08;73.05;94504.34;1769639;80;21379;-49
2020/12/26 09:01:57;;;;;;;20.90;16.07;;;;;;;2.12;73.17;94503.75;1779716;80;21544;-49
2020/12/26 09:04:29;;;;;;;24.75;17.70;;;;;;;2.21;73.17;94497.27;1779837;80;21083;-49
2020/12/26 09:06:58;;;;;;;43.75;27.52;;;;;;;2.27;72.93;94495.66;1779711;80;21075;-49
2020/12/26 09:09:29;;;;;;;62.20;41.15;;;;;;;2.29;72.99;94502.84;1779490;80;21305;-49
2020/12/26 09:12:03;;;;;;;69.47;43.95;;;;;;;2.38;73.05;94507.22;1779619;80;21279;-49
2020/12/26 09:14:32;;;;;;;42.10;27.82;;;;;;;2.43;72.67;94510.27;1779588;80;21163;-48
2020/12/26 09:17:01;;;;;;;32.48;24.02;;;;;;;2.37;72.51;94502.96;1779672;80;21088;-49
2020/12/26 09:19:44;;;;;;;34.20;23.85;;;;;;;2.35;72.70;94512.84;1779525;80;22081;-49
2020/12/26 09:22:12;;;;;;;36.85;27.37;;;;;;;2.39;72.92;94516.90;1779731;80;21653;-48
2020/12/26 09:24:40;;;;;;;26.23;19.73;;;;;;;2.46;73.03;94514.90;1779794;80;21823;-50
2020/12/26 09:27:21;;;;;;;29.98;21.75;;;;;;;2.47;72.75;94508.89;1779603;80;21214;-49
2020/12/26 09:29:54;;;;;;;25.40;19.00;;;;;;;2.43;72.86;94502.70;1779683;80;21076;-49
2020/12/26 09:32:20;;;;;;;31.42;22.35;;;;;;;2.48;72.89;94513.16;1749606;80;21088;-48
2020/12/26 09:34:49;;;;;;;32.17;22.52;;;;;;;2.58;72.56;94513.63;1779784;80;21080;-48
2020/12/26 09:37:18;;;;;;;28.70;20.95;;;;;;;2.58;72.46;94509.55;1779577;80;21501;-48
2020/12/26 09:39:47;;;;;;;32.98;23.85;;;;;;;2.60;72.59;94500.42;1779537;80;21172;-49
2020/12/26 09:42:17;;;;;;;46.23;30.70;;;;;;;2.63;72.64;94511.25;1779692;80;21067;-49
2020/12/26 09:44:46;;;;;;;46.40;30.20;;;;;;;2.61;72.74;94510.89;1779161;80;21104;-48
2020/12/26 09:47:15;;;;;;;35.85;25.43;;;;;;;2.70;72.90;94516.61;1779705;80;21060;-49
2020/12/26 09:49:43;;;;;;;25.97;18.42;;;;;;;2.81;72.80;94517.29;1779625;80;21564;-49
2020/12/26 09:52:12;;;;;;;23.45;16.30;;;;;;;2.92;72.35;94513.11;1779581;80;21120;-48
2020/12/26 09:54:41;;;;;;;19.42;14.85;;;;;;;2.89;72.20;94517.99;1779658;80;21187;-51
2020/12/26 09:57:09;;;;;;;15.48;12.90;;;;;;;2.87;72.19;94506.77;1779720;80;21512;-49
2020/12/26 09:59:39;;;;;;;14.55;12.90;;;;;;;2.90;72.02;94507.31;1779559;80;21119;-49
2020/12/26 10:02:08;;;;;;;19.05;14.23;;;;;;;2.86;71.86;94500.55;1779654;80;21388;-49
2020/12/26 10:04:38;;;;;;;31.05;21.62;;;;;;;2.85;72.04;94492.81;1775963;80;21084;-48
2020/12/26 10:07:06;;;;;;;29.02;20.75;;;;;;;2.86;71.99;94503.27;1779787;80;21075;-50
2020/12/26 10:09:35;;;;;;;22.60;15.88;;;;;;;2.84;72.13;94498.07;1779753;80;21582;-50
2020/12/26 10:12:03;;;;;;;26.12;19.80;;;;;;;2.79;72.46;94482.19;1779662;80;21144;-50
2020/12/26 10:14:31;;;;;;;17.67;13.80;;;;;;;2.79;72.45;94478.12;1779739;80;21354;-49
2020/12/26 10:17:00;;;;;;;22.48;17.67;;;;;;;2.79;72.58;94483.55;1779518;80;21132;-50
2020/12/26 10:19:28;;;;;;;44.05;29.02;;;;;;;2.83;72.70;94482.95;1779660;80;21061;-48
2020/12/26 10:21:57;;;;;;;42.80;26.65;;;;;;;2.78;72.71;94486.08;1779744;80;21583;-49
2020/12/26 10:24:25;;;;;;;36.95;26.40;;;;;;;2.69;73.12;94489.27;1779591;80;21087;-49
2020/12/26 10:26:54;;;;;;;24.75;18.20;;;;;;;2.65;73.37;94501.36;1779615;80;21188;-49
2020/12/26 10:29:22;;;;;;;21.90;14.85;;;;;;;2.61;72.99;94501.39;1779617;80;21136;-49
2020/12/26 10:31:50;;;;;;;22.77;18.42;;;;;;;2.58;72.99;94509.55;1779349;80;21183;-50
2020/12/26 10:34:21;;;;;;;36.55;24.12;;;;;;;2.55;73.04;94506.29;1778623;80;21139;-50
2020/12/26 10:36:49;;;;;;;27.77;17.73;;;;;;;2.55;73.21;94506.29;1778696;80;21091;-49
2020/12/26 10:39:19;;;;;;;22.35;16.75;;;;;;;2.56;73.15;94508.62;1778914;80;21206;-50
2020/12/26 10:41:48;;;;;;;21.70;15.35;;;;;;;2.56;73.17;94499.69;1779468;80;21091;-49
2020/12/26 10:44:16;;;;;;;31.30;25.45;;;;;;;2.57;73.25;94497.16;1779363;80;21198;-50
2020/12/26 10:46:47;;;;;;;62.60;42.73;;;;;;;2.58;73.18;94488.63;1779417;80;21208;-49
2020/12/26 10:49:15;;;;;;;29.48;22.40;;;;;;;2.62;73.33;94488.56;1779716;80;21477;-49
2020/12/26 10:51:49;;;;;;;24.07;18.45;;;;;;;2.66;73.06;94504.27;1779586;80;21197;-51
2020/12/26 10:54:17;;;;;;;28.05;18.85;;;;;;;2.60;73.13;94507.20;1779528;80;21183;-49
2020/12/26 10:56:47;;;;;;;19.82;15.10;;;;;;;2.55;72.78;94500.29;1779583;80;21079;-49
2020/12/26 10:59:15;;;;;;;21.77;15.30;;;;;;;2.58;72.53;94514.98;1779677;80;21499;-52
2020/12/26 11:01:44;;;;;;;24.75;17.87;;;;;;;2.61;72.05;94491.09;1779574;80;21139;-50
2020/12/26 11:04:13;;;;;;;23.50;16.45;;;;;;;2.57;72.10;94498.52;1779552;80;21549;-50
2020/12/26 11:06:41;;;;;;;20.20;15.00;;;;;;;2.54;72.07;94493.89;1779465;80;21195;-51
2020/12/26 11:09:10;;;;;;;19.00;13.18;;;;;;;2.55;71.87;94507.65;1779650;80;21512;-50
2020/12/26 11:11:50;;;;;;;21.93;17.23;;;;;;;2.57;71.80;94506.09;1779847;80;21464;-51
2020/12/26 11:14:18;;;;;;;23.02;17.42;;;;;;;2.60;71.63;94512.06;1779554;80;21068;-50
2020/12/26 11:16:49;;;;;;;24.90;19.15;;;;;;;2.64;71.37;94518.80;1779566;80;21198;-51
2020/12/26 11:19:18;;;;;;;39.00;27.52;;;;;;;2.68;70.98;94507.34;1779446;80;21079;-50
2020/12/26 11:21:53;;;;;;;29.12;21.68;;;;;;;2.72;71.13;94510.78;1779580;80;21083;-51
2020/12/26 11:24:22;;;;;;;21.75;18.23;;;;;;;2.79;71.05;94514.78;1779541;80;21182;-49
2020/12/26 11:26:50;;;;;;;23.60;18.05;;;;;;;2.79;70.36;94521.57;1779681;80;21472;-50
2020/12/26 11:29:18;;;;;;;27.95;22.52;;;;;;;2.79;70.60;94525.65;1779518;80;21386;-50
2020/12/26 11:31:47;;;;;;;21.80;16.32;;;;;;;2.85;70.50;94528.13;1779665;80;21107;-50
2020/12/26 11:34:15;;;;;;;16.32;12.30;;;;;;;2.89;70.20;94536.41;1779629;80;21052;-49
2020/12/26 11:36:45;;;;;;;17.77;11.12;;;;;;;2.91;69.74;94538.73;1779676;80;21123;-50
2020/12/26 11:39:13;;;;;;;14.87;11.63;;;;;;;2.87;69.38;94550.98;1779625;80;21619;-50
2020/12/26 11:41:42;;;;;;;15.75;13.55;;;;;;;2.79;69.10;94548.73;1779526;80;21306;-52
2020/12/26 11:44:10;;;;;;;24.45;17.92;;;;;;;2.70;69.02;94552.52;1779576;80;21511;-49